Quartz — V7KN5 — position and weather

sailwx.info

Track history (hours):
 
Tides and Currents Weather Stations Pressure Air Temp Water Temp Dewpoint Dewpoint Depression Visibility Wind Speed Wind Dir Waves Ship Positions

Quartz

Last reported at 2017-Nov-19 23:30 UTC. Time now 2017-Nov-20 15:48 UTC.
Position S 32°46' W 071°31'.

Length 183 m; draft 11.5 m.

Type: Tanker. MMSI: 538006178.

Date/timePositionNaut miles runAvg speedWind from/ knotsBaromVisibWave heightAir tempDewpointWater temp
2017-Nov-19 23:30S 32°46' W 071°31'0 0.0
2017-Nov-19 23:00S 32°46' W 071°32'0 0.0
2017-Nov-19 21:33S 32°46' W 071°31'0 0.0
2017-Nov-19 21:24S 32°46' W 071°31'0 0.1
2017-Nov-19 20:39S 32°46' W 071°31'0 0.1
2017-Nov-19 20:09S 32°46' W 071°31'0 0.1
2017-Nov-19 19:57S 32°46' W 071°31'0 0.0
2017-Nov-19 19:30S 32°46' W 071°31'0 0.0
2017-Nov-19 18:45S 32°46' W 071°31'0 0.0
2017-Nov-19 18:30S 32°46' W 071°31'0 0.0
2017-Nov-19 17:33S 32°46' W 071°31'0 0.0
2017-Nov-19 17:09S 32°46' W 071°31'0 0.0
2017-Nov-19 16:24S 32°46' W 071°31'0 0.0
2017-Nov-19 12:15S 32°46' W 071°32'0 0.0
2017-Nov-19 11:48S 32°46' W 071°32'0 0.1
2017-Nov-19 11:03S 32°46' W 071°31'0 0.0
2017-Nov-19 09:30S 32°46' W 071°31'0 0.0
2017-Nov-18 23:12S 32°46' W 071°31'0 0.0
2017-Nov-18 22:48S 32°46' W 071°31'0 0.0
2017-Nov-18 22:30S 32°46' W 071°31'0 0.0
2017-Nov-18 22:00S 32°46' W 071°31'0 0.0
2017-Nov-18 21:27S 32°46' W 071°31'0 0.0
2017-Nov-18 21:00S 32°46' W 071°31'0 0.0
2017-Nov-18 20:27S 32°46' W 071°31'0 0.0
2017-Nov-18 20:00S 32°46' W 071°31'0 0.0
2017-Nov-18 19:27S 32°46' W 071°31'0 0.0
2017-Nov-18 19:00S 32°46' W 071°31'0 0.0
2017-Nov-18 18:30S 32°46' W 071°31'0 0.0
2017-Nov-18 18:00S 32°46' W 071°31'0 0.0
2017-Nov-18 17:30S 32°46' W 071°31'0 0.0
2017-Nov-18 17:00S 32°46' W 071°31'0 0.0
2017-Nov-18 16:30S 32°46' W 071°31'0 0.0
2017-Nov-18 16:00S 32°46' W 071°31'0 0.1
2017-Nov-18 15:30S 32°46' W 071°32'1 2.1
2017-Nov-18 15:00S 32°45' W 071°32'2 4.3
2017-Nov-18 14:30S 32°45' W 071°35'2 4.5
2017-Nov-18 14:00S 32°44' W 071°37'1 3.0
2017-Nov-18 13:30S 32°42' W 071°38'1 2.8
2017-Nov-18 12:59S 32°41' W 071°38'1 2.6
2017-Nov-18 12:30S 32°40' W 071°39'2 3.1
2017-Nov-18 12:00S 32°41' W 071°39'3 5.0
2017-Nov-18 11:29S 32°44' W 071°39'2 5.0
2017-Nov-18 10:59S 32°46' W 071°40'2 4.9
2017-Nov-18 10:30S 32°48' W 071°41'3 5.2
2017-Nov-18 10:00S 32°50' W 071°43'3 4.9
2017-Nov-18 09:30S 32°52' W 071°44'2 5.0
2017-Nov-18 09:00S 32°55' W 071°45'3 5.1
2017-Nov-18 08:30S 32°57' W 071°46'1 2.2
2017-Nov-18 07:59S 32°58' W 071°47'1 1.3
2017-Nov-18 07:30S 32°58' W 071°46'1 1.5
2017-Nov-18 06:59S 32°57' W 071°46'1 1.8
2017-Nov-18 06:30S 32°56' W 071°46'1 1.7
2017-Nov-18 06:00S 32°55' W 071°46'1 1.7
2017-Nov-18 05:30S 32°55' W 071°45'1 1.7
2017-Nov-18 05:00S 32°54' W 071°45'0 1.0
2017-Nov-18 04:30S 32°53' W 071°45'0 0.8
2017-Nov-18 04:00S 32°53' W 071°44'0 0.8
2017-Nov-18 03:30S 32°53' W 071°44'1 1.2
2017-Nov-18 03:00S 32°52' W 071°44'1 1.1
2017-Nov-18 02:30S 32°52' W 071°44'0 1.0
2017-Nov-18 02:00S 32°51' W 071°44'1 1.3
2017-Nov-18 01:30S 32°50' W 071°43'0 1.0
2017-Nov-18 01:00S 32°50' W 071°43'1 1.0
2017-Nov-18 00:30S 32°49' W 071°43'0 0.7
2017-Nov-18 00:00S 32°49' W 071°43'1 1.1
2017-Nov-17 23:30S 32°49' W 071°43'1 1.0
2017-Nov-17 23:00S 32°48' W 071°43'1 1.3
2017-Nov-17 22:30S 32°48' W 071°42'1 1.3
2017-Nov-17 22:00S 32°47' W 071°42'1 1.0
2017-Nov-17 21:30S 32°46' W 071°42'0 0.9
2017-Nov-17 21:00S 32°46' W 071°41'1 1.0
2017-Nov-17 20:30S 32°46' W 071°41'0 0.7
2017-Nov-17 20:00S 32°45' W 071°41'0 0.7
2017-Nov-17 19:30S 32°45' W 071°41'1 0.8
2017-Nov-17 18:05S 32°44' W 071°41'0 1.0
2017-Nov-17 18:00S 32°44' W 071°41'0 0.8
2017-Nov-17 17:28S 32°43' W 071°40'0 1.0
2017-Nov-17 17:00S 32°43' W 071°40'1 2.0
2017-Nov-17 16:30S 32°42' W 071°40'  
Track history (hours):
 
Tides and Currents Weather Stations Pressure Air Temp Water Temp Dewpoint Dewpoint Depression Visibility Wind Speed Wind Dir Waves Ship Positions

Quartz

Last reported at 2017-Nov-19 23:30 UTC. Time now 2017-Nov-20 15:48 UTC.
Position S 32°46' W 071°31'.

Length 183 m; draft 11.5 m.

Type: Tanker. MMSI: 538006178.

Date/timePositionNaut miles runAvg speedWind from/ knotsBaromVisibWave heightAir tempDewpointWater temp
2017-Nov-19 23:30S 32°46' W 071°31'0 0.0
2017-Nov-19 23:00S 32°46' W 071°32'0 0.0
2017-Nov-19 21:33S 32°46' W 071°31'0 0.0
2017-Nov-19 21:24S 32°46' W 071°31'0 0.1
2017-Nov-19 20:39S 32°46' W 071°31'0 0.1
2017-Nov-19 20:09S 32°46' W 071°31'0 0.1
2017-Nov-19 19:57S 32°46' W 071°31'0 0.0
2017-Nov-19 19:30S 32°46' W 071°31'0 0.0
2017-Nov-19 18:45S 32°46' W 071°31'0 0.0
2017-Nov-19 18:30S 32°46' W 071°31'0 0.0
2017-Nov-19 17:33S 32°46' W 071°31'0 0.0
2017-Nov-19 17:09S 32°46' W 071°31'0 0.0
2017-Nov-19 16:24S 32°46' W 071°31'0 0.0
2017-Nov-19 12:15S 32°46' W 071°32'0 0.0
2017-Nov-19 11:48S 32°46' W 071°32'0 0.1
2017-Nov-19 11:03S 32°46' W 071°31'0 0.0
2017-Nov-19 09:30S 32°46' W 071°31'0 0.0
2017-Nov-18 23:12S 32°46' W 071°31'0 0.0
2017-Nov-18 22:48S 32°46' W 071°31'0 0.0
2017-Nov-18 22:30S 32°46' W 071°31'0 0.0
2017-Nov-18 22:00S 32°46' W 071°31'0 0.0
2017-Nov-18 21:27S 32°46' W 071°31'0 0.0
2017-Nov-18 21:00S 32°46' W 071°31'0 0.0
2017-Nov-18 20:27S 32°46' W 071°31'0 0.0
2017-Nov-18 20:00S 32°46' W 071°31'0 0.0
2017-Nov-18 19:27S 32°46' W 071°31'0 0.0
2017-Nov-18 19:00S 32°46' W 071°31'0 0.0
2017-Nov-18 18:30S 32°46' W 071°31'0 0.0
2017-Nov-18 18:00S 32°46' W 071°31'0 0.0
2017-Nov-18 17:30S 32°46' W 071°31'0 0.0
2017-Nov-18 17:00S 32°46' W 071°31'0 0.0
2017-Nov-18 16:30S 32°46' W 071°31'0 0.0
2017-Nov-18 16:00S 32°46' W 071°31'0 0.1
2017-Nov-18 15:30S 32°46' W 071°32'1 2.1
2017-Nov-18 15:00S 32°45' W 071°32'2 4.3
2017-Nov-18 14:30S 32°45' W 071°35'2 4.5
2017-Nov-18 14:00S 32°44' W 071°37'1 3.0
2017-Nov-18 13:30S 32°42' W 071°38'1 2.8
2017-Nov-18 12:59S 32°41' W 071°38'1 2.6
2017-Nov-18 12:30S 32°40' W 071°39'2 3.1
2017-Nov-18 12:00S 32°41' W 071°39'3 5.0
2017-Nov-18 11:29S 32°44' W 071°39'2 5.0
2017-Nov-18 10:59S 32°46' W 071°40'2 4.9
2017-Nov-18 10:30S 32°48' W 071°41'3 5.2
2017-Nov-18 10:00S 32°50' W 071°43'3 4.9
2017-Nov-18 09:30S 32°52' W 071°44'2 5.0
2017-Nov-18 09:00S 32°55' W 071°45'3 5.1
2017-Nov-18 08:30S 32°57' W 071°46'1 2.2
2017-Nov-18 07:59S 32°58' W 071°47'1 1.3
2017-Nov-18 07:30S 32°58' W 071°46'1 1.5
2017-Nov-18 06:59S 32°57' W 071°46'1 1.8
2017-Nov-18 06:30S 32°56' W 071°46'1 1.7
2017-Nov-18 06:00S 32°55' W 071°46'1 1.7
2017-Nov-18 05:30S 32°55' W 071°45'1 1.7
2017-Nov-18 05:00S 32°54' W 071°45'0 1.0
2017-Nov-18 04:30S 32°53' W 071°45'0 0.8
2017-Nov-18 04:00S 32°53' W 071°44'0 0.8
2017-Nov-18 03:30S 32°53' W 071°44'1 1.2
2017-Nov-18 03:00S 32°52' W 071°44'1 1.1
2017-Nov-18 02:30S 32°52' W 071°44'0 1.0
2017-Nov-18 02:00S 32°51' W 071°44'1 1.3
2017-Nov-18 01:30S 32°50' W 071°43'0 1.0
2017-Nov-18 01:00S 32°50' W 071°43'1 1.0
2017-Nov-18 00:30S 32°49' W 071°43'0 0.7
2017-Nov-18 00:00S 32°49' W 071°43'1 1.1
2017-Nov-17 23:30S 32°49' W 071°43'1 1.0
2017-Nov-17 23:00S 32°48' W 071°43'1 1.3
2017-Nov-17 22:30S 32°48' W 071°42'1 1.3
2017-Nov-17 22:00S 32°47' W 071°42'1 1.0
2017-Nov-17 21:30S 32°46' W 071°42'0 0.9
2017-Nov-17 21:00S 32°46' W 071°41'1 1.0
2017-Nov-17 20:30S 32°46' W 071°41'0 0.7
2017-Nov-17 20:00S 32°45' W 071°41'0 0.7
2017-Nov-17 19:30S 32°45' W 071°41'1 0.8
2017-Nov-17 18:05S 32°44' W 071°41'0 1.0
2017-Nov-17 18:00S 32°44' W 071°41'0 0.8
2017-Nov-17 17:28S 32°43' W 071°40'0 1.0
2017-Nov-17 17:00S 32°43' W 071°40'1 2.0
2017-Nov-17 16:30S 32°42' W 071°40'  

Dump ship's entire track history